Time;durP1;ratioP1;P1;durP2;ratioP2;P2;SDS_P1;SDS_P2;PMS_P1;PMS_P2;Temp;Humidity;BMP_temperature;BMP_pressure;BME280_temperature;BME280_humidity;BME280_pressure;Samples;Min_cycle;Max_cycle;Signal;HPM_P1;HPM_P2
2022/03/16 00:02:19;;;;;;;22.67;17.63;;;7.70;99.90;;;;;;5072063;28;20473;-51
2022/03/16 00:04:49;;;;;;;24.02;17.90;;;7.80;99.90;;;;;;5072340;28;20489;-51
2022/03/16 00:07:15;;;;;;;22.20;17.42;;;8.00;99.90;;;;;;5072212;28;20068;-51
2022/03/16 00:09:42;;;;;;;24.20;17.55;;;7.90;99.90;;;;;;5071998;28;20086;-51
2022/03/16 00:12:09;;;;;;;22.90;17.77;;;7.80;99.90;;;;;;5072069;28;20033;-51
2022/03/16 00:14:35;;;;;;;24.73;17.65;;;7.70;99.90;;;;;;5072323;28;20029;-52
2022/03/16 00:17:01;;;;;;;23.98;17.33;;;7.80;99.90;;;;;;5073903;28;20027;-51
2022/03/16 00:19:26;;;;;;;27.55;18.80;;;7.80;99.90;;;;;;5074275;28;20025;-52
2022/03/16 00:21:52;;;;;;;22.48;17.20;;;7.90;99.90;;;;;;5073870;28;20117;-51
2022/03/16 00:24:18;;;;;;;22.08;17.45;;;7.80;99.90;;;;;;5074187;28;20033;-51
2022/03/16 00:26:43;;;;;;;22.67;17.55;;;7.70;99.90;;;;;;5074181;28;20124;-51
2022/03/16 00:29:09;;;;;;;23.08;17.88;;;7.60;99.90;;;;;;5074540;28;20084;-51
2022/03/16 00:31:35;;;;;;;23.83;18.30;;;7.40;99.90;;;;;;5074498;28;20029;-51
2022/03/16 00:34:01;;;;;;;22.50;18.77;;;7.30;99.90;;;;;;5074006;28;20084;-52
2022/03/16 00:36:27;;;;;;;24.50;19.45;;;7.30;99.90;;;;;;5071928;28;20028;-52
2022/03/16 00:38:53;;;;;;;29.17;19.30;;;7.30;99.90;;;;;;5071775;28;20397;-52
2022/03/16 00:41:19;;;;;;;25.20;19.67;;;7.30;99.90;;;;;;5071855;28;20013;-53
2022/03/16 00:43:45;;;;;;;28.30;20.27;;;7.20;99.90;;;;;;5072157;28;20028;-53
2022/03/16 00:46:10;;;;;;;29.38;20.67;;;7.30;99.90;;;;;;5071971;28;20028;-52
2022/03/16 00:48:36;;;;;;;24.30;21.15;;;7.30;99.90;;;;;;5072236;28;20060;-53
2022/03/16 00:51:02;;;;;;;27.30;20.75;;;7.30;99.90;;;;;;5071562;28;20481;-53
2022/03/16 00:53:28;;;;;;;24.02;19.67;;;7.30;99.90;;;;;;5071551;28;20021;-52
2022/03/16 00:55:54;;;;;;;25.58;20.13;;;7.30;99.90;;;;;;5071456;28;20193;-52
2022/03/16 00:58:19;;;;;;;28.27;22.13;;;7.30;99.90;;;;;;5071724;28;20115;-52
2022/03/16 01:00:45;;;;;;;28.55;21.45;;;7.30;99.90;;;;;;5071747;28;20036;-52
2022/03/16 01:03:12;;;;;;;27.42;22.30;;;7.30;99.90;;;;;;5071557;28;20033;-52
2022/03/16 01:05:37;;;;;;;26.52;21.48;;;7.40;99.90;;;;;;5071174;28;20017;-52
2022/03/16 01:08:03;;;;;;;28.65;22.10;;;7.40;99.90;;;;;;5071733;28;20515;-52
2022/03/16 01:10:29;;;;;;;29.15;22.67;;;7.40;99.90;;;;;;5071850;28;20029;-52
2022/03/16 01:12:55;;;;;;;27.95;22.02;;;7.30;99.90;;;;;;5070971;28;20067;-52
2022/03/16 01:15:23;;;;;;;27.48;21.38;;;7.30;99.90;;;;;;5071443;28;20036;-52
2022/03/16 01:17:50;;;;;;;30.40;22.98;;;7.30;99.90;;;;;;5072672;28;20035;-52
2022/03/16 01:20:16;;;;;;;32.65;23.13;;;7.30;99.90;;;;;;5071609;28;20100;-52
2022/03/16 01:22:42;;;;;;;30.08;23.13;;;7.30;99.90;;;;;;5071011;28;20029;-52
2022/03/16 01:25:07;;;;;;;31.92;23.15;;;7.30;99.90;;;;;;5072649;28;20039;-52
2022/03/16 01:27:33;;;;;;;32.70;23.23;;;7.20;99.90;;;;;;5075236;28;20025;-52
2022/03/16 01:29:59;;;;;;;33.58;23.83;;;7.20;99.90;;;;;;5074952;28;20060;-52
2022/03/16 01:32:24;;;;;;;33.90;24.98;;;7.50;99.90;;;;;;5074865;28;20033;-52
2022/03/16 01:34:50;;;;;;;34.22;25.80;;;7.50;99.90;;;;;;5075454;28;20024;-52
2022/03/16 01:37:16;;;;;;;34.13;24.70;;;7.50;99.90;;;;;;5075510;28;20036;-52
2022/03/16 01:39:41;;;;;;;34.65;23.73;;;7.30;99.90;;;;;;5075352;28;20367;-52
2022/03/16 01:42:07;;;;;;;31.63;24.73;;;7.30;99.90;;;;;;5074940;28;20113;-53
2022/03/16 01:44:45;;;;;;;32.13;25.00;;;7.30;99.90;;;;;;5074822;28;20059;-52
2022/03/16 01:47:12;;;;;;;36.00;25.00;;;7.30;99.90;;;;;;5075114;28;20428;-53
2022/03/16 01:49:38;;;;;;;32.88;24.17;;;7.30;99.90;;;;;;5075272;28;20016;-52
2022/03/16 01:52:04;;;;;;;32.72;23.50;;;7.10;99.90;;;;;;5074757;28;20477;-52
2022/03/16 01:54:30;;;;;;;35.20;24.63;;;7.10;99.90;;;;;;5074392;28;20036;-52
2022/03/16 01:56:56;;;;;;;33.55;23.58;;;7.00;99.90;;;;;;5074986;28;20021;-52
2022/03/16 01:59:22;;;;;;;30.13;24.10;;;7.00;99.90;;;;;;5074557;28;20028;-52
2022/03/16 02:01:47;;;;;;;33.90;24.85;;;7.00;99.90;;;;;;5075064;28;20661;-52
2022/03/16 02:04:13;;;;;;;35.13;25.20;;;7.00;99.90;;;;;;5074418;28;20377;-52
2022/03/16 02:06:39;;;;;;;33.95;26.05;;;7.00;99.90;;;;;;5074671;28;20082;-51
2022/03/16 02:09:05;;;;;;;35.08;25.67;;;6.80;99.90;;;;;;5074703;28;20100;-52
2022/03/16 02:11:30;;;;;;;35.03;25.83;;;6.80;99.90;;;;;;5073958;28;20029;-51
2022/03/16 02:13:57;;;;;;;35.30;25.50;;;6.70;99.90;;;;;;5074093;28;20024;-52
2022/03/16 02:16:22;;;;;;;37.38;26.17;;;6.60;99.90;;;;;;5074281;28;20103;-51
2022/03/16 02:18:48;;;;;;;35.05;25.55;;;6.70;99.90;;;;;;5073964;28;20460;-51
2022/03/16 02:21:16;;;;;;;33.28;25.48;;;6.70;99.90;;;;;;5074369;28;20074;-51
2022/03/16 02:23:42;;;;;;;33.05;25.00;;;6.80;99.90;;;;;;5074216;28;20020;-55
2022/03/16 02:26:12;;;;;;;35.95;25.73;;;6.80;99.90;;;;;;5073904;28;20032;-52
2022/03/16 02:28:38;;;;;;;32.05;24.98;;;6.80;99.90;;;;;;5074497;28;20015;-52
2022/03/16 02:31:05;;;;;;;31.27;22.75;;;6.70;99.90;;;;;;5074468;28;20440;-52
2022/03/16 02:33:31;;;;;;;37.33;25.60;;;6.60;99.90;;;;;;5074384;28;20543;-51
2022/03/16 02:35:56;;;;;;;33.55;24.67;;;6.60;99.90;;;;;;5073775;28;20025;-52
2022/03/16 02:38:22;;;;;;;33.17;24.50;;;6.50;99.90;;;;;;5074800;28;20073;-51
2022/03/16 02:40:48;;;;;;;30.00;23.20;;;6.40;99.90;;;;;;5076153;28;20025;-52
2022/03/16 02:43:14;;;;;;;32.47;23.85;;;6.40;99.90;;;;;;5076479;28;20389;-51
2022/03/16 02:45:40;;;;;;;33.15;24.63;;;6.50;99.90;;;;;;5076968;28;20040;-51
2022/03/16 02:48:05;;;;;;;32.35;24.83;;;6.50;99.90;;;;;;5077812;28;20033;-51
2022/03/16 02:50:32;;;;;;;38.17;26.48;;;6.70;99.90;;;;;;5077315;28;20031;-51
2022/03/16 02:52:58;;;;;;;33.92;26.55;;;6.80;99.90;;;;;;5077524;28;20048;-51
2022/03/16 02:55:23;;;;;;;41.28;27.63;;;6.70;99.90;;;;;;5078055;28;20500;-51
2022/03/16 02:57:54;;;;;;;34.28;26.40;;;6.90;99.90;;;;;;5078191;28;20024;-51
2022/03/16 03:00:20;;;;;;;33.72;25.70;;;7.00;99.90;;;;;;5077219;28;20471;-51
2022/03/16 03:02:46;;;;;;;36.53;25.75;;;6.80;99.90;;;;;;5076643;28;20103;-51
2022/03/16 03:05:12;;;;;;;35.70;26.27;;;6.90;99.90;;;;;;5077105;28;20048;-51
2022/03/16 03:07:37;;;;;;;38.03;27.20;;;6.90;99.90;;;;;;5077949;28;20105;-51
2022/03/16 03:10:03;;;;;;;40.38;27.88;;;7.20;99.90;;;;;;5079018;28;20021;-51
2022/03/16 03:12:34;;;;;;;39.13;29.38;;;7.30;99.90;;;;;;5076900;28;20476;-51
2022/03/16 03:15:00;;;;;;;37.65;27.05;;;7.40;99.90;;;;;;5073517;28;20040;-51
2022/03/16 03:17:25;;;;;;;37.42;27.20;;;7.40;99.90;;;;;;5073614;28;20032;-51
2022/03/16 03:19:51;;;;;;;34.67;26.92;;;7.30;99.90;;;;;;5072794;28;20032;-51
2022/03/16 03:22:17;;;;;;;37.70;25.83;;;7.20;99.90;;;;;;5073243;28;20025;-51
2022/03/16 03:24:44;;;;;;;34.20;26.02;;;7.20;99.90;;;;;;5073471;28;20278;-51
2022/03/16 03:27:10;;;;;;;36.45;27.20;;;7.30;99.90;;;;;;5073666;28;20036;-51
2022/03/16 03:29:36;;;;;;;31.30;24.95;;;7.50;99.90;;;;;;5073168;28;20017;-51
2022/03/16 03:32:02;;;;;;;34.17;25.73;;;7.40;99.90;;;;;;5073562;28;20085;-51
2022/03/16 03:34:27;;;;;;;35.08;26.20;;;7.50;99.90;;;;;;5073134;28;20028;-51
2022/03/16 03:36:53;;;;;;;36.15;25.60;;;7.60;99.90;;;;;;5073066;28;20466;-51
2022/03/16 03:39:19;;;;;;;30.92;25.35;;;7.60;99.90;;;;;;5073151;28;20488;-51
2022/03/16 03:41:44;;;;;;;35.42;25.00;;;7.50;99.90;;;;;;5072918;28;20036;-51
2022/03/16 03:44:10;;;;;;;27.63;22.40;;;7.20;99.90;;;;;;5072851;28;20021;-51
2022/03/16 03:46:36;;;;;;;31.80;22.48;;;7.00;99.90;;;;;;5073085;28;20024;-51
2022/03/16 03:49:01;;;;;;;30.27;22.35;;;7.00;99.90;;;;;;5071763;28;20047;-51
2022/03/16 03:51:27;;;;;;;26.83;21.10;;;6.90;99.90;;;;;;5072050;28;20047;-52
2022/03/16 03:53:53;;;;;;;26.08;20.80;;;6.90;99.90;;;;;;5073145;28;20537;-51
2022/03/16 03:56:18;;;;;;;25.83;20.38;;;7.00;99.90;;;;;;5073112;28;20028;-51
2022/03/16 03:58:45;;;;;;;25.77;20.70;;;6.90;99.90;;;;;;5072895;28;20481;-51
2022/03/16 04:01:10;;;;;;;25.85;20.80;;;6.80;99.90;;;;;;5072830;28;20518;-51
2022/03/16 04:03:36;;;;;;;23.58;19.80;;;6.90;99.90;;;;;;5072459;28;20033;-51
2022/03/16 04:06:02;;;;;;;24.52;20.30;;;6.90;99.90;;;;;;5072711;28;20024;-51
2022/03/16 04:08:28;;;;;;;25.70;20.33;;;6.90;99.90;;;;;;5071871;28;20051;-51
2022/03/16 04:10:53;;;;;;;28.10;21.67;;;6.90;99.90;;;;;;5072205;28;20021;-52
2022/03/16 04:13:19;;;;;;;29.40;20.05;;;7.00;99.90;;;;;;5072066;28;20048;-52
2022/03/16 04:15:45;;;;;;;26.70;20.73;;;7.10;99.90;;;;;;5071973;28;20408;-51
2022/03/16 04:18:10;;;;;;;26.98;20.90;;;7.30;99.90;;;;;;5072381;28;20025;-51
2022/03/16 04:20:36;;;;;;;25.20;21.02;;;7.50;99.90;;;;;;5071948;28;20312;-51
2022/03/16 04:23:01;;;;;;;26.02;19.77;;;7.70;99.90;;;;;;5071730;28;20086;-51
2022/03/16 04:25:27;;;;;;;24.25;19.35;;;7.50;99.90;;;;;;5072418;28;20300;-52
2022/03/16 04:27:53;;;;;;;24.50;18.77;;;7.50;99.90;;;;;;5072027;28;20021;-51
2022/03/16 04:30:19;;;;;;;31.10;19.88;;;7.50;99.90;;;;;;5071860;28;20020;-51
2022/03/16 04:32:44;;;;;;;22.67;19.15;;;7.50;99.90;;;;;;5071941;28;20028;-52
2022/03/16 04:35:10;;;;;;;26.27;19.90;;;7.60;99.90;;;;;;5071491;28;20056;-51
2022/03/16 04:37:36;;;;;;;27.15;19.83;;;7.60;99.90;;;;;;5071976;28;20501;-51
2022/03/16 04:40:02;;;;;;;27.67;19.58;;;7.50;99.90;;;;;;5071228;28;20456;-51
2022/03/16 04:42:27;;;;;;;26.38;19.60;;;7.40;99.90;;;;;;5071816;28;20107;-51
2022/03/16 04:44:53;;;;;;;24.42;19.50;;;7.40;99.90;;;;;;5071851;28;20338;-51
2022/03/16 04:47:19;;;;;;;24.65;19.75;;;7.40;99.90;;;;;;5071196;28;20474;-52
2022/03/16 04:49:44;;;;;;;25.20;19.58;;;7.50;99.90;;;;;;5071879;28;20036;-51
2022/03/16 04:52:10;;;;;;;24.80;19.27;;;7.50;99.90;;;;;;5071909;28;20044;-51
2022/03/16 04:54:35;;;;;;;24.38;19.75;;;7.50;99.90;;;;;;5071774;28;20024;-51
2022/03/16 04:57:01;;;;;;;26.33;20.70;;;7.50;99.90;;;;;;5071445;28;20126;-51
2022/03/16 04:59:27;;;;;;;24.23;19.17;;;7.60;99.90;;;;;;5071437;28;20108;-51
2022/03/16 05:01:52;;;;;;;24.67;19.77;;;7.50;99.90;;;;;;5071608;28;20113;-51
2022/03/16 05:04:18;;;;;;;24.48;20.15;;;7.50;99.90;;;;;;5071417;28;20343;-51
2022/03/16 05:06:44;;;;;;;25.30;20.08;;;7.50;99.90;;;;;;5071288;28;20056;-51
2022/03/16 05:09:09;;;;;;;27.80;20.45;;;7.50;99.90;;;;;;5072029;28;20021;-51
2022/03/16 05:11:36;;;;;;;24.85;20.13;;;7.50;99.90;;;;;;5072040;28;20058;-51
2022/03/16 05:14:02;;;;;;;26.30;20.73;;;7.50;99.90;;;;;;5072153;28;20404;-52
2022/03/16 05:16:27;;;;;;;26.70;20.95;;;7.50;99.90;;;;;;5071458;28;20108;-52
2022/03/16 05:18:53;;;;;;;31.40;21.27;;;7.50;99.90;;;;;;5071486;28;20059;-51
2022/03/16 05:21:19;;;;;;;27.08;21.33;;;7.40;99.90;;;;;;5071082;28;20036;-52
2022/03/16 05:23:44;;;;;;;28.08;21.83;;;7.40;99.90;;;;;;5071023;28;20070;-51
2022/03/16 05:26:10;;;;;;;28.60;21.75;;;7.60;99.90;;;;;;5070725;28;20492;-52
2022/03/16 05:28:35;;;;;;;28.48;21.98;;;7.60;99.90;;;;;;5071503;28;20031;-52
2022/03/16 05:31:01;;;;;;;29.38;21.98;;;7.50;99.90;;;;;;5070886;28;20027;-52
2022/03/16 05:33:27;;;;;;;26.90;20.95;;;7.50;99.90;;;;;;5071623;28;20412;-52
2022/03/16 05:35:53;;;;;;;27.65;21.67;;;7.40;99.90;;;;;;5071247;28;20056;-52
2022/03/16 05:38:18;;;;;;;27.85;21.83;;;7.40;99.90;;;;;;5071413;28;20029;-51
2022/03/16 05:40:44;;;;;;;27.30;21.80;;;7.50;99.90;;;;;;5069570;28;20469;-52
2022/03/16 05:43:11;;;;;;;30.75;21.08;;;7.20;99.90;;;;;;5070974;28;20033;-51
2022/03/16 05:45:37;;;;;;;32.15;21.35;;;7.20;99.90;;;;;;5071440;28;20024;-51
2022/03/16 05:48:03;;;;;;;27.67;21.95;;;7.10;99.90;;;;;;5072127;28;20024;-51
2022/03/16 05:50:29;;;;;;;30.45;23.42;;;7.00;99.90;;;;;;5071420;28;20025;-51
2022/03/16 05:52:59;;;;;;;29.63;23.08;;;7.00;99.90;;;;;;5071120;28;20466;-51
2022/03/16 05:55:25;;;;;;;34.47;23.92;;;7.00;99.90;;;;;;5070003;28;20135;-51
2022/03/16 05:57:51;;;;;;;33.17;23.80;;;7.10;99.90;;;;;;5070819;28;20048;-52
2022/03/16 06:00:18;;;;;;;31.50;23.60;;;7.00;99.90;;;;;;5069887;28;20024;-52
2022/03/16 06:02:45;;;;;;;35.90;25.27;;;7.10;99.90;;;;;;5070152;28;20021;-52
2022/03/16 06:05:11;;;;;;;37.22;25.45;;;7.20;99.90;;;;;;5070821;28;20020;-52
2022/03/16 06:07:40;;;;;;;30.33;22.92;;;7.30;99.90;;;;;;5070654;28;20513;-52
2022/03/16 06:10:08;;;;;;;32.88;24.58;;;7.10;99.90;;;;;;5070534;28;20422;-52
2022/03/16 06:12:34;;;;;;;29.77;22.83;;;6.90;99.90;;;;;;5072473;28;20060;-52
2022/03/16 06:15:00;;;;;;;31.67;23.33;;;6.80;99.90;;;;;;5074394;28;20047;-52
2022/03/16 06:17:25;;;;;;;33.00;25.02;;;6.80;99.90;;;;;;5074968;28;20478;-52
2022/03/16 06:19:51;;;;;;;34.78;23.90;;;6.90;99.90;;;;;;5074635;28;20020;-52
2022/03/16 06:22:16;;;;;;;34.90;24.80;;;6.80;99.90;;;;;;5074552;28;20091;-52
2022/03/16 06:24:42;;;;;;;33.67;23.45;;;7.00;99.90;;;;;;5074169;28;20028;-52
2022/03/16 06:27:08;;;;;;;31.08;23.55;;;6.90;99.90;;;;;;5074807;28;20025;-52
2022/03/16 06:29:33;;;;;;;33.58;24.75;;;7.00;99.90;;;;;;5078640;28;20016;-52
2022/03/16 06:31:59;;;;;;;34.15;25.15;;;7.10;99.90;;;;;;5075949;28;20025;-53
2022/03/16 06:34:25;;;;;;;35.83;25.35;;;7.10;99.90;;;;;;5078248;28;20093;-51
2022/03/16 06:36:51;;;;;;;43.20;26.65;;;7.00;99.90;;;;;;5082979;28;20032;-51
2022/03/16 06:39:16;;;;;;;36.22;27.33;;;7.10;99.90;;;;;;5076732;28;20524;-52
2022/03/16 06:41:43;;;;;;;39.95;27.98;;;7.10;99.90;;;;;;5081121;28;20028;-52
2022/03/16 06:44:09;;;;;;;41.22;29.35;;;7.30;99.90;;;;;;5084845;28;20036;-52
2022/03/16 06:46:35;;;;;;;47.28;31.50;;;7.40;99.90;;;;;;5086893;28;20050;-52
2022/03/16 06:49:01;;;;;;;42.80;29.67;;;7.50;99.90;;;;;;5084739;28;20032;-51
2022/03/16 06:51:26;;;;;;;43.92;28.17;;;7.50;99.90;;;;;;5077654;28;20020;-51
2022/03/16 06:53:52;;;;;;;38.35;26.67;;;7.40;99.90;;;;;;5079632;28;20038;-51
2022/03/16 06:56:17;;;;;;;36.97;25.73;;;7.30;99.90;;;;;;5082449;28;20099;-51
2022/03/16 06:58:43;;;;;;;33.17;25.10;;;7.50;99.90;;;;;;5081973;28;20110;-52
2022/03/16 07:01:08;;;;;;;30.30;22.88;;;7.50;99.90;;;;;;5078275;28;20062;-52
2022/03/16 07:03:34;;;;;;;42.55;30.42;;;7.50;99.90;;;;;;5076425;28;20512;-52
2022/03/16 07:06:00;;;;;;;47.08;30.35;;;7.50;99.90;;;;;;5079956;28;20028;-52
2022/03/16 07:08:26;;;;;;;29.55;23.02;;;7.70;99.90;;;;;;5074600;28;20044;-51
2022/03/16 07:10:52;;;;;;;28.15;21.95;;;7.90;99.90;;;;;;5071634;28;20089;-53
2022/03/16 07:13:17;;;;;;;30.00;21.48;;;8.00;99.90;;;;;;5070435;28;20043;-52
2022/03/16 07:15:45;;;;;;;31.27;20.05;;;8.10;99.90;;;;;;5066714;28;20028;-52
2022/03/16 07:18:11;;;;;;;33.10;22.45;;;8.10;99.90;;;;;;5064382;28;20039;-52
2022/03/16 07:20:38;;;;;;;30.17;22.38;;;8.30;99.90;;;;;;5066929;28;20032;-52
2022/03/16 07:23:11;;;;;;;32.63;21.40;;;8.50;99.90;;;;;;5073868;28;20451;-52
2022/03/16 07:25:46;;;;;;;34.90;21.92;;;8.50;99.90;;;;;;5072533;28;20021;-53
2022/03/16 07:28:12;;;;;;;31.33;22.23;;;8.60;99.90;;;;;;5073720;28;20425;-52
2022/03/16 07:30:38;;;;;;;27.27;21.77;;;8.80;99.90;;;;;;5071563;28;20466;-52
2022/03/16 07:33:05;;;;;;;31.10;20.73;;;8.70;99.90;;;;;;5074249;28;20037;-52
2022/03/16 07:35:31;;;;;;;29.27;21.38;;;8.80;99.90;;;;;;5074865;28;20035;-52
2022/03/16 07:37:58;;;;;;;27.58;20.98;;;8.80;99.90;;;;;;5074023;28;20106;-52
2022/03/16 07:40:25;;;;;;;27.92;21.42;;;8.60;99.90;;;;;;5074470;28;20040;-52
2022/03/16 07:42:52;;;;;;;30.85;24.77;;;8.50;99.90;;;;;;5075531;28;20028;-52
2022/03/16 07:45:18;;;;;;;53.53;41.90;;;8.50;99.90;;;;;;5073980;28;20432;-53
2022/03/16 07:47:49;;;;;;;49.95;41.15;;;8.40;99.90;;;;;;5071216;28;20035;-52
2022/03/16 07:50:16;;;;;;;61.17;51.88;;;8.70;99.90;;;;;;5070133;28;20046;-52
2022/03/16 07:52:42;;;;;;;75.90;62.78;;;8.80;99.90;;;;;;5067215;28;20035;-52
2022/03/16 07:55:09;;;;;;;66.68;54.40;;;8.80;99.90;;;;;;5078799;28;20028;-53
2022/03/16 07:57:35;;;;;;;72.30;59.38;;;9.10;99.90;;;;;;5071742;28;20669;-52
2022/03/16 08:00:06;;;;;;;75.53;62.97;;;9.40;99.90;;;;;;5066170;28;20040;-52
2022/03/16 08:02:31;;;;;;;73.65;58.63;;;9.40;99.90;;;;;;5067832;28;20518;-52
2022/03/16 08:04:58;;;;;;;68.40;57.75;;;9.50;99.90;;;;;;5075753;28;20029;-53
2022/03/16 08:07:28;;;;;;;67.85;54.60;;;9.60;99.90;;;;;;5069783;28;20094;-53
2022/03/16 08:09:54;;;;;;;69.75;54.85;;;9.50;99.90;;;;;;5070173;28;20024;-53
2022/03/16 08:12:20;;;;;;;54.15;40.58;;;9.80;99.90;;;;;;5071815;28;20021;-53
2022/03/16 08:14:45;;;;;;;49.38;35.63;;;9.80;99.90;;;;;;5073202;28;20039;-53
2022/03/16 08:17:11;;;;;;;38.15;29.27;;;10.20;99.90;;;;;;5071342;28;20044;-53
2022/03/16 08:19:36;;;;;;;33.70;25.15;;;10.40;99.90;;;;;;5071036;28;20670;-53
2022/03/16 08:22:03;;;;;;;28.73;21.38;;;10.50;99.90;;;;;;5072101;28;20481;-52
2022/03/16 08:24:28;;;;;;;28.63;18.45;;;10.70;99.90;;;;;;5072105;28;20032;-52
2022/03/16 08:26:54;;;;;;;24.63;18.20;;;10.40;99.90;;;;;;5074921;28;20035;-53
2022/03/16 08:29:19;;;;;;;25.60;18.95;;;10.50;99.90;;;;;;5073334;28;20123;-53
2022/03/16 08:31:45;;;;;;;28.73;19.85;;;10.70;99.90;;;;;;5074742;28;20043;-53
2022/03/16 08:34:11;;;;;;;28.55;20.27;;;11.10;99.90;;;;;;5072708;28;20028;-53
2022/03/16 08:36:38;;;;;;;27.63;20.02;;;11.30;99.90;;;;;;5069436;28;20118;-53
2022/03/16 08:39:05;;;;;;;29.15;21.08;;;11.80;99.90;;;;;;5074140;28;20039;-54
2022/03/16 08:41:35;;;;;;;21.38;17.63;;;11.80;99.90;;;;;;5068559;28;20020;-64
2022/03/16 08:44:02;;;;;;;23.02;16.20;;;11.90;99.90;;;;;;5070845;28;21387;-61
2022/03/16 08:46:28;;;;;;;17.80;15.27;;;11.90;99.90;;;;;;5075005;28;20135;-57
2022/03/16 08:48:54;;;;;;;17.52;15.00;;;11.90;99.90;;;;;;5073969;28;20037;-56
2022/03/16 08:51:19;;;;;;;22.17;15.93;;;11.70;99.90;;;;;;5067007;28;20036;-56
2022/03/16 08:53:45;;;;;;;21.60;15.38;;;11.70;99.90;;;;;;5070864;28;20028;-56
2022/03/16 08:56:12;;;;;;;19.55;15.65;;;11.60;99.90;;;;;;5075557;28;20052;-55
2022/03/16 08:58:38;;;;;;;20.90;15.63;;;11.70;99.90;;;;;;5070880;28;20043;-54
2022/03/16 09:01:05;;;;;;;22.17;15.70;;;11.50;99.90;;;;;;5073735;28;20460;-53
2022/03/16 09:03:31;;;;;;;23.00;16.27;;;11.70;99.90;;;;;;5074277;28;20025;-51
2022/03/16 09:05:56;;;;;;;17.73;15.07;;;11.80;99.90;;;;;;5072964;28;20051;-55
2022/03/16 09:08:22;;;;;;;19.95;16.48;;;11.60;99.90;;;;;;5070960;28;20048;-52
2022/03/16 09:10:48;;;;;;;23.00;16.10;;;11.10;99.90;;;;;;5071690;28;20127;-52
2022/03/16 09:13:17;;;;;;;21.25;15.27;;;11.20;99.90;;;;;;5075788;28;20020;-53
2022/03/16 09:15:44;;;;;;;24.50;16.40;;;11.30;99.90;;;;;;5075489;28;20564;-53
2022/03/16 09:18:10;;;;;;;22.55;16.70;;;11.30;99.90;;;;;;5075412;28;20381;-53
2022/03/16 09:20:37;;;;;;;25.80;16.30;;;11.30;99.90;;;;;;5075099;28;20029;-53
2022/03/16 09:23:03;;;;;;;20.23;15.88;;;11.50;99.90;;;;;;5072004;28;20222;-54
2022/03/16 09:25:28;;;;;;;19.65;15.77;;;11.70;99.90;;;;;;5076935;28;20491;-53
2022/03/16 09:27:54;;;;;;;23.10;16.88;;;11.70;99.90;;;;;;5070345;28;20032;-53
2022/03/16 09:30:21;;;;;;;19.83;15.50;;;11.70;99.90;;;;;;5070250;28;20024;-53
2022/03/16 09:32:46;;;;;;;20.50;16.52;;;12.00;99.90;;;;;;5072917;28;20429;-53
2022/03/16 09:35:12;;;;;;;19.52;15.25;;;12.10;99.90;;;;;;5060447;28;20031;-53
2022/03/16 09:37:40;;;;;;;22.25;16.83;;;11.90;99.90;;;;;;5069181;28;20050;-53
2022/03/16 09:40:06;;;;;;;21.13;15.63;;;11.80;99.90;;;;;;5071023;28;20073;-52
2022/03/16 09:42:33;;;;;;;20.40;15.85;;;11.60;99.90;;;;;;5080208;28;20051;-52
2022/03/16 09:45:02;;;;;;;24.13;16.25;;;11.50;99.90;;;;;;5075710;28;20393;-53
2022/03/16 09:47:30;;;;;;;21.60;16.67;;;11.40;99.90;;;;;;5072963;28;20027;-53
2022/03/16 09:49:56;;;;;;;25.40;16.85;;;11.10;99.90;;;;;;5070645;28;20079;-53
2022/03/16 09:52:26;;;;;;;23.42;16.40;;;11.10;99.90;;;;;;5080514;28;20620;-53
2022/03/16 09:54:53;;;;;;;21.92;17.02;;;11.20;99.90;;;;;;5070440;28;20028;-53
2022/03/16 09:57:20;;;;;;;23.70;16.52;;;11.60;99.90;;;;;;5068409;28;20493;-53
2022/03/16 09:59:45;;;;;;;23.35;16.65;;;11.70;99.90;;;;;;5066536;28;20046;-54
2022/03/16 10:02:16;;;;;;;23.55;16.80;;;11.80;99.90;;;;;;5072314;28;20817;-53
2022/03/16 10:04:42;;;;;;;22.70;16.65;;;12.20;99.90;;;;;;5065962;28;20020;-54
2022/03/16 10:07:08;;;;;;;22.38;15.95;;;12.30;99.90;;;;;;5069573;28;20067;-53
2022/03/16 10:15:10;;;;;;;23.80;16.92;;;12.50;99.90;;;;;;5072333;28;20044;-52
2022/03/16 10:17:43;;;;;;;22.58;16.13;;;12.40;99.90;;;;;;5075263;28;20120;-53
2022/03/16 10:20:19;;;;;;;25.05;16.98;;;12.30;99.90;;;;;;5067066;28;20798;-54
2022/03/16 10:23:13;;;;;;;24.20;15.80;;;12.20;99.90;;;;;;5073602;28;20882;-54
2022/03/16 10:25:41;;;;;;;21.70;16.67;;;12.20;99.90;;;;;;5063534;28;20044;-53
2022/03/16 10:28:13;;;;;;;22.25;16.02;;;12.10;99.90;;;;;;5066749;28;20445;-53
2022/03/16 10:30:52;;;;;;;23.33;16.83;;;12.10;99.90;;;;;;5084721;28;20107;-53
2022/03/16 10:33:19;;;;;;;26.10;15.95;;;12.20;99.90;;;;;;5069939;28;20029;-52
2022/03/16 10:36:15;;;;;;;23.67;15.30;;;12.20;99.90;;;;;;5078466;28;20550;-53
2022/03/16 10:38:43;;;;;;;24.13;15.80;;;12.40;99.90;;;;;;5063021;28;20040;-53
2022/03/16 10:41:13;;;;;;;23.50;17.20;;;12.40;99.90;;;;;;5071888;28;20064;-52
2022/03/16 10:46:35;;;;;;;27.08;17.33;;;12.20;99.90;;;;;;5070839;28;20043;-53
2022/03/16 10:49:12;;;;;;;23.75;16.95;;;12.10;99.90;;;;;;5071541;28;20542;-53
2022/03/16 10:51:38;;;;;;;26.60;16.40;;;12.10;99.90;;;;;;5072453;28;20033;-53
2022/03/16 10:54:05;;;;;;;35.50;18.08;;;12.20;99.90;;;;;;5073584;28;20039;-54
2022/03/16 10:56:32;;;;;;;23.00;16.30;;;12.30;99.90;;;;;;5067173;28;20033;-53
2022/03/16 10:58:59;;;;;;;26.48;15.48;;;12.30;99.90;;;;;;5065908;28;20029;-53
2022/03/16 11:01:27;;;;;;;27.05;16.77;;;12.40;99.90;;;;;;5070455;28;20116;-53
2022/03/16 11:03:58;;;;;;;24.85;17.10;;;12.40;99.90;;;;;;5072089;28;20220;-53
2022/03/16 11:06:25;;;;;;;25.10;17.15;;;12.40;99.90;;;;;;5076495;28;20039;-53
2022/03/16 11:08:51;;;;;;;27.15;17.50;;;12.40;99.90;;;;;;5076284;28;20035;-53
2022/03/16 11:14:03;;;;;;;26.30;16.77;;;12.60;99.90;;;;;;5074992;28;20090;-53
2022/03/16 11:16:30;;;;;;;23.38;17.02;;;12.60;99.90;;;;;;5083846;28;20024;-54
2022/03/16 11:19:06;;;;;;;26.65;17.52;;;12.70;99.90;;;;;;5073971;28;20028;-54
2022/03/16 11:21:45;;;;;;;24.17;16.30;;;12.70;99.90;;;;;;5083040;28;20032;-53
2022/03/16 11:24:18;;;;;;;24.67;15.90;;;12.80;99.90;;;;;;5071644;28;20139;-54
2022/03/16 11:27:03;;;;;;;24.10;17.00;;;12.80;99.90;;;;;;5072429;28;20740;-54
2022/03/16 11:29:44;;;;;;;28.35;17.38;;;12.90;99.90;;;;;;5068575;28;20090;-54
2022/03/16 11:32:12;;;;;;;26.75;17.55;;;13.10;99.90;;;;;;5074426;28;20012;-53
2022/03/16 11:34:38;;;;;;;29.35;16.98;;;13.10;99.90;;;;;;5074839;28;20039;-53
2022/03/16 11:37:10;;;;;;;27.58;16.98;;;13.10;99.90;;;;;;5070485;28;20116;-53
2022/03/16 11:39:44;;;;;;;24.02;16.23;;;13.20;99.90;;;;;;5077249;28;20032;-54
2022/03/16 11:42:11;;;;;;;25.35;17.23;;;13.10;99.90;;;;;;5083600;28;20386;-53
2022/03/16 11:44:39;;;;;;;27.50;17.17;;;13.00;99.90;;;;;;5085939;28;20035;-54
2022/03/16 11:47:11;;;;;;;26.15;16.40;;;13.00;99.90;;;;;;5076560;28;20525;-53
2022/03/16 11:49:41;;;;;;;24.77;16.67;;;13.00;99.90;;;;;;5089078;28;20032;-54
2022/03/16 11:52:09;;;;;;;25.25;17.17;;;12.90;99.90;;;;;;5074758;28;20040;-53
2022/03/16 11:54:48;;;;;;;25.70;17.67;;;12.80;99.90;;;;;;5072683;28;20023;-53
2022/03/16 11:57:34;;;;;;;22.90;16.80;;;12.90;99.90;;;;;;5073342;28;20020;-53
2022/03/16 12:00:12;;;;;;;25.63;16.52;;;13.10;99.90;;;;;;5090363;28;20024;-53
2022/03/16 12:02:38;;;;;;;27.15;16.77;;;13.00;99.90;;;;;;5090549;28;20024;-52
2022/03/16 12:05:04;;;;;;;26.25;16.83;;;13.10;99.90;;;;;;5090502;28;20028;-52
2022/03/16 12:07:35;;;;;;;23.33;16.35;;;13.20;99.90;;;;;;5090248;28;20630;-52
2022/03/16 12:10:03;;;;;;;25.25;16.95;;;13.20;99.90;;;;;;5088158;28;20031;-53
2022/03/16 12:12:55;;;;;;;24.48;16.85;;;13.30;99.90;;;;;;5081521;28;20020;-53
2022/03/16 12:15:28;;;;;;;21.75;16.27;;;13.50;99.90;;;;;;5078457;28;20027;-54
2022/03/16 12:17:58;;;;;;;23.38;15.43;;;13.70;99.90;;;;;;5073590;28;20101;-54
2022/03/16 12:20:36;;;;;;;25.52;16.17;;;13.80;99.90;;;;;;5081733;28;20076;-53
2022/03/16 12:23:05;;;;;;;24.20;17.13;;;13.70;99.90;;;;;;5075174;28;20103;-53
2022/03/16 12:25:33;;;;;;;23.85;16.27;;;13.80;99.90;;;;;;5069120;28;20081;-53
2022/03/16 12:30:55;;;;;;;22.45;15.68;;;13.90;99.90;;;;;;5078371;28;20615;-55
2022/03/16 12:33:45;;;;;;;23.65;16.60;;;14.00;99.90;;;;;;5074501;28;20103;-54
2022/03/16 12:36:14;;;;;;;24.58;15.57;;;14.00;99.90;;;;;;5070589;28;20119;-54
2022/03/16 12:38:55;;;;;;;22.90;15.43;;;13.90;99.90;;;;;;5077369;28;20473;-54
2022/03/16 12:44:12;;;;;;;29.33;16.00;;;13.80;99.90;;;;;;5071063;28;20054;-54
2022/03/16 12:47:10;;;;;;;26.92;16.30;;;13.70;99.90;;;;;;5080583;28;20024;-54
2022/03/16 12:49:43;;;;;;;23.90;15.18;;;13.80;99.90;;;;;;5085451;28;20251;-54
2022/03/16 12:52:10;;;;;;;25.95;16.42;;;14.00;99.90;;;;;;5075204;28;20075;-54